createdAt,value
2017-05-11T00:01:18.000Z,51.576
2017-05-11T00:11:18.000Z,51.592
2017-05-11T00:31:18.000Z,51.647
2017-05-11T00:51:18.000Z,51.639
2017-05-11T01:01:18.000Z,51.633
2017-05-11T01:11:18.000Z,51.758
2017-05-11T01:31:19.000Z,51.856
2017-05-11T02:41:23.000Z,51.881
2017-05-11T02:51:20.000Z,51.879
2017-05-11T03:01:20.000Z,51.884
2017-05-11T03:11:20.000Z,51.923
2017-05-11T03:21:20.000Z,51.887
2017-05-11T03:31:20.000Z,51.926
2017-05-11T03:41:20.000Z,51.945
2017-05-11T03:51:20.000Z,51.889
2017-05-11T04:01:20.000Z,51.917
2017-05-11T04:11:20.000Z,51.872
2017-05-11T04:21:20.000Z,51.837
2017-05-11T04:31:20.000Z,51.739
2017-05-11T04:41:20.000Z,51.386
2017-05-11T04:51:20.000Z,51.15
2017-05-11T05:01:20.000Z,50.948
2017-05-11T05:11:20.000Z,50.864
2017-05-11T05:21:20.000Z,50.675
2017-05-11T05:31:20.000Z,50.583
2017-05-11T05:41:20.000Z,50.346
2017-05-11T05:51:20.000Z,50.119
2017-05-11T06:01:20.000Z,49.975
2017-05-11T06:11:20.000Z,50.068
2017-05-11T06:21:20.000Z,50.061
2017-05-11T06:31:20.000Z,49.875
2017-05-11T06:41:20.000Z,48.98
2017-05-11T06:51:20.000Z,48.292
2017-05-11T07:01:20.000Z,48.208
2017-05-11T07:11:20.000Z,48.143
2017-05-11T07:21:20.000Z,47.927
2017-05-11T07:31:20.000Z,47.639
2017-05-11T07:41:20.000Z,47.462
2017-05-11T07:51:20.000Z,47.285
2017-05-11T08:01:20.000Z,47.004
2017-05-11T08:11:20.000Z,46.993
2017-05-11T08:21:20.000Z,46.624
2017-05-11T08:31:20.000Z,46.387
2017-05-11T08:41:20.000Z,46.232
2017-05-11T08:51:20.000Z,45.927
2017-05-11T09:01:20.000Z,45.525
2017-05-11T09:11:20.000Z,45.278
2017-05-11T09:21:20.000Z,44.822
2017-05-11T09:31:20.000Z,44.558
2017-05-11T09:41:20.000Z,44.308
2017-05-11T10:01:20.000Z,43.869
2017-05-11T10:11:21.000Z,43.618
2017-05-11T10:21:20.000Z,43.932
2017-05-11T10:31:20.000Z,43.56
2017-05-11T10:41:20.000Z,43.538
2017-05-11T10:51:20.000Z,43.669
2017-05-11T11:01:20.000Z,43.505
2017-05-11T11:11:20.000Z,43.567
2017-05-11T11:21:21.000Z,43.277
2017-05-11T11:31:21.000Z,43.055
2017-05-11T11:41:21.000Z,42.882
2017-05-11T11:51:21.000Z,43.038
2017-05-11T12:01:21.000Z,42.973
2017-05-11T12:11:21.000Z,43.324
2017-05-11T12:21:21.000Z,42.535
2017-05-11T12:31:21.000Z,43.355
2017-05-11T12:41:21.000Z,43.125
2017-05-11T12:51:21.000Z,43.482
2017-05-11T13:01:22.000Z,43.376
2017-05-11T13:11:21.000Z,43.457
2017-05-11T13:21:21.000Z,43.403
2017-05-11T13:31:21.000Z,43.525
2017-05-11T13:41:21.000Z,43.415
2017-05-11T13:51:21.000Z,43.438
2017-05-11T14:01:21.000Z,43.353
2017-05-11T14:11:21.000Z,43.505
2017-05-11T14:21:21.000Z,42.804
2017-05-11T14:31:21.000Z,43.657
2017-05-11T14:41:21.000Z,44.06
2017-05-11T14:51:21.000Z,43.936
2017-05-11T15:01:21.000Z,44.219
2017-05-11T15:11:21.000Z,44.375
2017-05-11T15:21:21.000Z,44.572
2017-05-11T15:31:21.000Z,44.745
2017-05-11T15:41:21.000Z,44.866
2017-05-11T15:51:21.000Z,44.899
2017-05-11T16:01:21.000Z,44.935
2017-05-11T16:11:21.000Z,45.098
2017-05-11T16:21:21.000Z,45.195
2017-05-11T16:31:21.000Z,45.272
2017-05-11T16:41:21.000Z,45.283
2017-05-11T16:51:21.000Z,45.443
2017-05-11T17:01:21.000Z,45.28
2017-05-11T17:11:21.000Z,45.419
2017-05-11T17:21:21.000Z,45.342
2017-05-11T17:31:21.000Z,45.447
2017-05-11T17:41:21.000Z,45.488
2017-05-11T17:51:21.000Z,45.594
2017-05-11T18:01:22.000Z,45.71
2017-05-11T18:11:21.000Z,45.87
2017-05-11T18:21:21.000Z,46.017
2017-05-11T18:31:21.000Z,46.133
2017-05-11T18:41:22.000Z,46.314
2017-05-11T18:51:21.000Z,46.291
2017-05-11T19:01:22.000Z,46.3
2017-05-11T19:11:22.000Z,46.407
2017-05-11T19:21:22.000Z,46.229
2017-05-11T19:31:21.000Z,46.975
2017-05-11T19:41:22.000Z,47.041
2017-05-11T19:51:22.000Z,47.948
2017-05-11T20:01:22.000Z,48.504
2017-05-11T20:11:22.000Z,48.44
2017-05-11T20:21:22.000Z,48.585
2017-05-11T20:51:22.000Z,48.64
2017-05-11T21:11:22.000Z,48.411
2017-05-11T21:31:22.000Z,48.453
2017-05-11T21:41:22.000Z,48.439
2017-05-11T21:51:22.000Z,48.467
2017-05-11T22:11:22.000Z,48.561
2017-05-11T22:31:22.000Z,48.588
2017-05-11T22:41:22.000Z,48.619
2017-05-11T22:51:22.000Z,48.66
2017-05-11T23:11:22.000Z,48.774
2017-05-11T23:31:22.000Z,48.954
2017-05-11T23:41:22.000Z,49.039
2017-05-11T23:51:22.000Z,49.154
